sensor_id;sensor_type;location;lat;lon;timestamp;P1;durP1;ratioP1;P2;durP2;ratioP2
48040;SDS011;33815;48.386;11.738;2022-10-31T00:02:18;6.85;;;3.88;;
48040;SDS011;33815;48.386;11.738;2022-10-31T00:04:44;8.02;;;4.07;;
48040;SDS011;33815;48.386;11.738;2022-10-31T00:07:09;5.68;;;3.88;;
48040;SDS011;33815;48.386;11.738;2022-10-31T00:09:34;6.78;;;3.72;;
48040;SDS011;33815;48.386;11.738;2022-10-31T00:11:59;5.82;;;3.55;;
48040;SDS011;33815;48.386;11.738;2022-10-31T00:14:25;4.53;;;3.63;;
48040;SDS011;33815;48.386;11.738;2022-10-31T00:16:50;5.82;;;3.58;;
48040;SDS011;33815;48.386;11.738;2022-10-31T00:19:15;4.57;;;3.63;;
48040;SDS011;33815;48.386;11.738;2022-10-31T00:21:41;5.20;;;3.28;;
48040;SDS011;33815;48.386;11.738;2022-10-31T00:24:06;4.97;;;3.47;;
48040;SDS011;33815;48.386;11.738;2022-10-31T00:26:31;4.50;;;3.63;;
48040;SDS011;33815;48.386;11.738;2022-10-31T00:28:58;7.65;;;5.18;;
48040;SDS011;33815;48.386;11.738;2022-10-31T00:31:24;8.38;;;5.05;;
48040;SDS011;33815;48.386;11.738;2022-10-31T00:33:49;9.73;;;5.38;;
48040;SDS011;33815;48.386;11.738;2022-10-31T00:36:16;13.25;;;5.07;;
48040;SDS011;33815;48.386;11.738;2022-10-31T00:38:42;13.60;;;5.00;;
48040;SDS011;33815;48.386;11.738;2022-10-31T00:41:09;8.02;;;4.80;;
48040;SDS011;33815;48.386;11.738;2022-10-31T00:43:35;6.45;;;4.22;;
48040;SDS011;33815;48.386;11.738;2022-10-31T00:46:07;6.85;;;3.53;;
48040;SDS011;33815;48.386;11.738;2022-10-31T00:48:32;9.65;;;3.75;;
48040;SDS011;33815;48.386;11.738;2022-10-31T00:50:58;4.95;;;3.70;;
48040;SDS011;33815;48.386;11.738;2022-10-31T00:53:23;6.78;;;4.20;;
48040;SDS011;33815;48.386;11.738;2022-10-31T00:55:49;5.30;;;4.10;;
48040;SDS011;33815;48.386;11.738;2022-10-31T00:58:14;6.40;;;4.95;;
48040;SDS011;33815;48.386;11.738;2022-10-31T01:00:39;7.10;;;4.32;;
48040;SDS011;33815;48.386;11.738;2022-10-31T01:03:05;3.63;;;3.15;;
48040;SDS011;33815;48.386;11.738;2022-10-31T01:05:30;8.50;;;3.72;;
48040;SDS011;33815;48.386;11.738;2022-10-31T01:07:56;2.85;;;2.65;;
48040;SDS011;33815;48.386;11.738;2022-10-31T01:10:21;4.45;;;3.25;;
48040;SDS011;33815;48.386;11.738;2022-10-31T01:12:47;4.57;;;3.28;;
48040;SDS011;33815;48.386;11.738;2022-10-31T01:15:15;5.88;;;3.13;;
48040;SDS011;33815;48.386;11.738;2022-10-31T01:17:43;4.43;;;3.00;;
48040;SDS011;33815;48.386;11.738;2022-10-31T01:20:09;3.63;;;2.72;;
48040;SDS011;33815;48.386;11.738;2022-10-31T01:22:36;5.00;;;3.65;;
48040;SDS011;33815;48.386;11.738;2022-10-31T01:25:01;5.32;;;3.17;;
48040;SDS011;33815;48.386;11.738;2022-10-31T01:27:26;3.85;;;3.42;;
48040;SDS011;33815;48.386;11.738;2022-10-31T01:29:52;4.65;;;3.22;;
48040;SDS011;33815;48.386;11.738;2022-10-31T01:32:17;2.80;;;2.58;;
48040;SDS011;33815;48.386;11.738;2022-10-31T01:34:42;6.25;;;3.35;;
48040;SDS011;33815;48.386;11.738;2022-10-31T01:37:08;3.30;;;3.00;;
48040;SDS011;33815;48.386;11.738;2022-10-31T01:39:33;3.88;;;3.38;;
48040;SDS011;33815;48.386;11.738;2022-10-31T01:41:58;3.33;;;2.78;;
48040;SDS011;33815;48.386;11.738;2022-10-31T01:47:04;3.47;;;3.17;;
48040;SDS011;33815;48.386;11.738;2022-10-31T01:49:42;7.75;;;3.88;;
48040;SDS011;33815;48.386;11.738;2022-10-31T01:52:12;3.30;;;3.00;;
48040;SDS011;33815;48.386;11.738;2022-10-31T01:54:46;4.80;;;3.20;;
48040;SDS011;33815;48.386;11.738;2022-10-31T01:57:16;5.97;;;3.45;;
48040;SDS011;33815;48.386;11.738;2022-10-31T01:59:44;3.83;;;3.10;;
48040;SDS011;33815;48.386;11.738;2022-10-31T02:02:13;4.72;;;3.42;;
48040;SDS011;33815;48.386;11.738;2022-10-31T02:04:42;4.22;;;3.20;;
48040;SDS011;33815;48.386;11.738;2022-10-31T02:07:10;3.38;;;3.08;;
48040;SDS011;33815;48.386;11.738;2022-10-31T02:09:38;4.32;;;3.55;;
48040;SDS011;33815;48.386;11.738;2022-10-31T02:12:04;3.58;;;3.10;;
48040;SDS011;33815;48.386;11.738;2022-10-31T02:14:31;3.92;;;3.40;;
48040;SDS011;33815;48.386;11.738;2022-10-31T02:16:57;4.30;;;3.90;;
48040;SDS011;33815;48.386;11.738;2022-10-31T02:22:17;4.53;;;3.45;;
48040;SDS011;33815;48.386;11.738;2022-10-31T02:24:45;3.90;;;3.58;;
48040;SDS011;33815;48.386;11.738;2022-10-31T02:27:37;5.05;;;3.92;;
48040;SDS011;33815;48.386;11.738;2022-10-31T02:30:27;5.60;;;3.85;;
48040;SDS011;33815;48.386;11.738;2022-10-31T02:35:54;5.57;;;3.92;;
48040;SDS011;33815;48.386;11.738;2022-10-31T02:41:09;8.35;;;4.00;;
48040;SDS011;33815;48.386;11.738;2022-10-31T02:46:34;2.77;;;2.57;;
48040;SDS011;33815;48.386;11.738;2022-10-31T02:49:10;9.57;;;4.88;;
48040;SDS011;33815;48.386;11.738;2022-10-31T02:51:43;4.85;;;2.90;;
48040;SDS011;33815;48.386;11.738;2022-10-31T02:54:21;4.82;;;4.38;;
48040;SDS011;33815;48.386;11.738;2022-10-31T02:56:48;6.47;;;3.78;;
48040;SDS011;33815;48.386;11.738;2022-10-31T02:59:18;4.68;;;3.97;;
48040;SDS011;33815;48.386;11.738;2022-10-31T03:10:03;4.47;;;3.33;;
48040;SDS011;33815;48.386;11.738;2022-10-31T03:12:49;3.17;;;2.97;;
48040;SDS011;33815;48.386;11.738;2022-10-31T03:15:42;4.18;;;3.78;;
48040;SDS011;33815;48.386;11.738;2022-10-31T03:18:12;4.18;;;3.65;;
48040;SDS011;33815;48.386;11.738;2022-10-31T03:20:55;5.50;;;3.60;;
48040;SDS011;33815;48.386;11.738;2022-10-31T03:23:30;4.82;;;3.42;;
48040;SDS011;33815;48.386;11.738;2022-10-31T03:26:00;6.03;;;4.28;;
48040;SDS011;33815;48.386;11.738;2022-10-31T03:28:28;5.30;;;3.75;;
48040;SDS011;33815;48.386;11.738;2022-10-31T03:30:58;5.15;;;3.50;;
48040;SDS011;33815;48.386;11.738;2022-10-31T03:33:28;5.50;;;3.72;;
48040;SDS011;33815;48.386;11.738;2022-10-31T03:35:57;4.40;;;3.95;;
48040;SDS011;33815;48.386;11.738;2022-10-31T03:38:27;3.95;;;3.55;;
48040;SDS011;33815;48.386;11.738;2022-10-31T03:40:54;5.55;;;4.13;;
48040;SDS011;33815;48.386;11.738;2022-10-31T03:43:24;6.50;;;3.35;;
48040;SDS011;33815;48.386;11.738;2022-10-31T03:45:53;4.22;;;3.83;;
48040;SDS011;33815;48.386;11.738;2022-10-31T03:48:19;3.40;;;3.10;;
48040;SDS011;33815;48.386;11.738;2022-10-31T03:50:49;8.07;;;3.95;;
48040;SDS011;33815;48.386;11.738;2022-10-31T03:53:30;4.22;;;3.55;;
48040;SDS011;33815;48.386;11.738;2022-10-31T03:56:09;3.70;;;3.40;;
48040;SDS011;33815;48.386;11.738;2022-10-31T03:58:45;3.22;;;2.90;;
48040;SDS011;33815;48.386;11.738;2022-10-31T04:01:17;3.58;;;3.28;;
48040;SDS011;33815;48.386;11.738;2022-10-31T04:03:44;4.22;;;3.50;;
48040;SDS011;33815;48.386;11.738;2022-10-31T04:06:11;4.15;;;3.15;;
48040;SDS011;33815;48.386;11.738;2022-10-31T04:08:41;4.38;;;3.63;;
48040;SDS011;33815;48.386;11.738;2022-10-31T04:11:11;3.60;;;3.30;;
48040;SDS011;33815;48.386;11.738;2022-10-31T04:13:40;3.85;;;3.45;;
48040;SDS011;33815;48.386;11.738;2022-10-31T04:16:08;3.38;;;3.08;;
48040;SDS011;33815;48.386;11.738;2022-10-31T04:18:35;3.75;;;3.45;;
48040;SDS011;33815;48.386;11.738;2022-10-31T04:21:01;3.55;;;3.25;;
48040;SDS011;33815;48.386;11.738;2022-10-31T04:23:32;4.05;;;3.65;;
48040;SDS011;33815;48.386;11.738;2022-10-31T04:25:58;3.60;;;3.30;;
48040;SDS011;33815;48.386;11.738;2022-10-31T04:28:24;3.88;;;3.55;;
48040;SDS011;33815;48.386;11.738;2022-10-31T04:30:49;5.78;;;3.78;;
48040;SDS011;33815;48.386;11.738;2022-10-31T04:33:15;3.22;;;3.03;;
48040;SDS011;33815;48.386;11.738;2022-10-31T04:35:40;3.42;;;3.13;;
48040;SDS011;33815;48.386;11.738;2022-10-31T04:38:06;3.55;;;2.72;;
48040;SDS011;33815;48.386;11.738;2022-10-31T04:40:31;4.50;;;3.25;;
48040;SDS011;33815;48.386;11.738;2022-10-31T04:42:56;4.95;;;3.80;;
48040;SDS011;33815;48.386;11.738;2022-10-31T04:45:22;4.75;;;4.28;;
48040;SDS011;33815;48.386;11.738;2022-10-31T04:47:47;6.70;;;4.05;;
48040;SDS011;33815;48.386;11.738;2022-10-31T04:50:12;4.47;;;3.83;;
48040;SDS011;33815;48.386;11.738;2022-10-31T04:52:41;4.00;;;3.58;;
48040;SDS011;33815;48.386;11.738;2022-10-31T04:55:08;6.38;;;4.30;;
48040;SDS011;33815;48.386;11.738;2022-10-31T04:57:41;7.30;;;5.25;;
48040;SDS011;33815;48.386;11.738;2022-10-31T05:00:07;5.85;;;4.15;;
48040;SDS011;33815;48.386;11.738;2022-10-31T05:02:33;5.63;;;4.63;;
48040;SDS011;33815;48.386;11.738;2022-10-31T05:04:58;5.05;;;3.67;;
48040;SDS011;33815;48.386;11.738;2022-10-31T05:07:24;4.28;;;3.88;;
48040;SDS011;33815;48.386;11.738;2022-10-31T05:09:49;6.90;;;4.55;;
48040;SDS011;33815;48.386;11.738;2022-10-31T05:12:14;6.93;;;4.22;;
48040;SDS011;33815;48.386;11.738;2022-10-31T05:14:39;9.40;;;4.68;;
48040;SDS011;33815;48.386;11.738;2022-10-31T05:17:05;8.73;;;4.53;;
48040;SDS011;33815;48.386;11.738;2022-10-31T05:19:30;8.68;;;4.57;;
48040;SDS011;33815;48.386;11.738;2022-10-31T05:21:55;9.75;;;4.85;;
48040;SDS011;33815;48.386;11.738;2022-10-31T05:24:20;7.22;;;4.30;;
48040;SDS011;33815;48.386;11.738;2022-10-31T05:26:46;5.35;;;4.32;;
48040;SDS011;33815;48.386;11.738;2022-10-31T05:29:12;5.07;;;4.38;;
48040;SDS011;33815;48.386;11.738;2022-10-31T05:31:37;15.55;;;5.25;;
48040;SDS011;33815;48.386;11.738;2022-10-31T05:34:03;9.20;;;4.57;;
48040;SDS011;33815;48.386;11.738;2022-10-31T05:36:28;6.63;;;4.00;;
48040;SDS011;33815;48.386;11.738;2022-10-31T05:38:53;11.82;;;4.55;;
48040;SDS011;33815;48.386;11.738;2022-10-31T05:41:18;11.07;;;6.45;;
48040;SDS011;33815;48.386;11.738;2022-10-31T05:43:44;12.02;;;5.00;;
48040;SDS011;33815;48.386;11.738;2022-10-31T05:46:10;5.85;;;4.10;;
48040;SDS011;33815;48.386;11.738;2022-10-31T05:48:35;5.32;;;3.63;;
48040;SDS011;33815;48.386;11.738;2022-10-31T05:51:01;4.50;;;4.05;;
48040;SDS011;33815;48.386;11.738;2022-10-31T05:53:26;5.00;;;3.60;;
48040;SDS011;33815;48.386;11.738;2022-10-31T05:55:51;8.52;;;4.07;;
48040;SDS011;33815;48.386;11.738;2022-10-31T05:58:16;5.18;;;3.83;;
48040;SDS011;33815;48.386;11.738;2022-10-31T06:00:42;7.22;;;5.00;;
48040;SDS011;33815;48.386;11.738;2022-10-31T06:03:08;8.43;;;4.57;;
48040;SDS011;33815;48.386;11.738;2022-10-31T06:05:34;13.07;;;5.70;;
48040;SDS011;33815;48.386;11.738;2022-10-31T06:07:59;9.30;;;5.00;;
48040;SDS011;33815;48.386;11.738;2022-10-31T06:10:25;9.93;;;5.70;;
48040;SDS011;33815;48.386;11.738;2022-10-31T06:12:50;13.57;;;4.90;;
48040;SDS011;33815;48.386;11.738;2022-10-31T06:15:16;21.75;;;7.03;;
48040;SDS011;33815;48.386;11.738;2022-10-31T06:17:42;10.82;;;5.30;;
48040;SDS011;33815;48.386;11.738;2022-10-31T06:20:07;16.67;;;6.63;;
48040;SDS011;33815;48.386;11.738;2022-10-31T06:22:33;6.78;;;4.10;;
48040;SDS011;33815;48.386;11.738;2022-10-31T06:24:58;8.38;;;4.47;;
48040;SDS011;33815;48.386;11.738;2022-10-31T06:27:24;7.60;;;5.10;;
48040;SDS011;33815;48.386;11.738;2022-10-31T06:29:49;14.60;;;5.70;;
48040;SDS011;33815;48.386;11.738;2022-10-31T06:32:15;8.38;;;4.88;;
48040;SDS011;33815;48.386;11.738;2022-10-31T06:34:41;5.88;;;4.47;;
48040;SDS011;33815;48.386;11.738;2022-10-31T06:37:07;4.80;;;3.70;;
48040;SDS011;33815;48.386;11.738;2022-10-31T06:39:34;12.10;;;4.65;;
48040;SDS011;33815;48.386;11.738;2022-10-31T06:41:59;8.05;;;4.97;;
48040;SDS011;33815;48.386;11.738;2022-10-31T06:44:25;4.97;;;3.92;;
48040;SDS011;33815;48.386;11.738;2022-10-31T06:46:50;9.88;;;4.97;;
48040;SDS011;33815;48.386;11.738;2022-10-31T06:49:15;8.57;;;5.63;;
48040;SDS011;33815;48.386;11.738;2022-10-31T06:51:41;13.35;;;5.45;;
48040;SDS011;33815;48.386;11.738;2022-10-31T06:54:07;9.60;;;5.82;;
48040;SDS011;33815;48.386;11.738;2022-10-31T06:56:32;9.55;;;5.32;;
48040;SDS011;33815;48.386;11.738;2022-10-31T06:58:58;9.82;;;5.63;;
48040;SDS011;33815;48.386;11.738;2022-10-31T07:01:23;9.65;;;5.20;;
48040;SDS011;33815;48.386;11.738;2022-10-31T07:03:48;12.82;;;5.65;;
48040;SDS011;33815;48.386;11.738;2022-10-31T07:06:13;10.30;;;6.40;;
48040;SDS011;33815;48.386;11.738;2022-10-31T07:08:39;9.85;;;5.25;;
48040;SDS011;33815;48.386;11.738;2022-10-31T07:11:04;12.63;;;6.15;;
48040;SDS011;33815;48.386;11.738;2022-10-31T07:13:30;16.20;;;6.22;;
48040;SDS011;33815;48.386;11.738;2022-10-31T07:15:58;10.85;;;5.13;;
48040;SDS011;33815;48.386;11.738;2022-10-31T07:18:25;14.13;;;5.85;;
48040;SDS011;33815;48.386;11.738;2022-10-31T07:20:51;9.30;;;5.78;;
48040;SDS011;33815;48.386;11.738;2022-10-31T07:23:17;13.25;;;6.30;;
48040;SDS011;33815;48.386;11.738;2022-10-31T07:25:43;14.88;;;6.55;;
48040;SDS011;33815;48.386;11.738;2022-10-31T07:28:09;12.32;;;5.78;;
48040;SDS011;33815;48.386;11.738;2022-10-31T07:30:34;12.82;;;5.82;;
48040;SDS011;33815;48.386;11.738;2022-10-31T07:33:00;13.57;;;6.10;;
48040;SDS011;33815;48.386;11.738;2022-10-31T07:35:26;15.48;;;7.05;;
48040;SDS011;33815;48.386;11.738;2022-10-31T07:37:53;10.02;;;6.15;;
48040;SDS011;33815;48.386;11.738;2022-10-31T07:40:19;12.93;;;6.40;;
48040;SDS011;33815;48.386;11.738;2022-10-31T07:42:47;12.82;;;6.63;;
48040;SDS011;33815;48.386;11.738;2022-10-31T07:45:15;10.50;;;5.93;;
48040;SDS011;33815;48.386;11.738;2022-10-31T07:47:46;9.05;;;6.50;;
48040;SDS011;33815;48.386;11.738;2022-10-31T07:50:13;15.93;;;8.63;;
48040;SDS011;33815;48.386;11.738;2022-10-31T07:52:40;11.35;;;7.90;;
48040;SDS011;33815;48.386;11.738;2022-10-31T07:55:06;16.33;;;8.68;;
48040;SDS011;33815;48.386;11.738;2022-10-31T07:57:32;12.45;;;8.00;;
48040;SDS011;33815;48.386;11.738;2022-10-31T07:59:58;13.80;;;8.32;;
48040;SDS011;33815;48.386;11.738;2022-10-31T08:02:23;15.25;;;7.45;;
48040;SDS011;33815;48.386;11.738;2022-10-31T08:04:49;9.63;;;6.90;;
48040;SDS011;33815;48.386;11.738;2022-10-31T08:07:15;11.93;;;7.72;;
48040;SDS011;33815;48.386;11.738;2022-10-31T08:09:40;11.32;;;7.53;;
48040;SDS011;33815;48.386;11.738;2022-10-31T08:12:06;9.13;;;6.80;;
48040;SDS011;33815;48.386;11.738;2022-10-31T08:14:31;10.57;;;6.70;;
48040;SDS011;33815;48.386;11.738;2022-10-31T08:16:56;10.90;;;7.45;;
48040;SDS011;33815;48.386;11.738;2022-10-31T08:19:22;12.60;;;7.63;;
48040;SDS011;33815;48.386;11.738;2022-10-31T08:21:50;11.25;;;7.00;;
48040;SDS011;33815;48.386;11.738;2022-10-31T08:24:16;12.00;;;7.03;;
48040;SDS011;33815;48.386;11.738;2022-10-31T08:26:41;10.40;;;7.47;;
48040;SDS011;33815;48.386;11.738;2022-10-31T08:29:06;12.43;;;6.90;;
48040;SDS011;33815;48.386;11.738;2022-10-31T08:31:32;10.07;;;6.50;;
48040;SDS011;33815;48.386;11.738;2022-10-31T08:33:57;9.53;;;6.83;;
48040;SDS011;33815;48.386;11.738;2022-10-31T08:36:22;8.88;;;6.45;;
48040;SDS011;33815;48.386;11.738;2022-10-31T08:38:48;12.70;;;7.33;;
48040;SDS011;33815;48.386;11.738;2022-10-31T08:41:13;9.65;;;6.57;;
48040;SDS011;33815;48.386;11.738;2022-10-31T08:43:39;9.02;;;7.13;;
48040;SDS011;33815;48.386;11.738;2022-10-31T08:46:04;9.45;;;6.72;;
48040;SDS011;33815;48.386;11.738;2022-10-31T08:48:30;12.43;;;8.60;;
48040;SDS011;33815;48.386;11.738;2022-10-31T08:50:57;9.38;;;7.40;;
48040;SDS011;33815;48.386;11.738;2022-10-31T08:53:23;12.52;;;8.32;;
48040;SDS011;33815;48.386;11.738;2022-10-31T08:55:48;13.95;;;8.68;;
48040;SDS011;33815;48.386;11.738;2022-10-31T08:58:15;13.05;;;9.45;;
48040;SDS011;33815;48.386;11.738;2022-10-31T09:00:43;11.60;;;9.05;;
48040;SDS011;33815;48.386;11.738;2022-10-31T09:03:11;13.25;;;8.70;;
48040;SDS011;33815;48.386;11.738;2022-10-31T09:05:38;15.35;;;8.25;;
48040;SDS011;33815;48.386;11.738;2022-10-31T09:08:04;11.48;;;7.88;;
48040;SDS011;33815;48.386;11.738;2022-10-31T09:10:31;12.23;;;7.93;;
48040;SDS011;33815;48.386;11.738;2022-10-31T09:12:58;10.02;;;7.05;;
48040;SDS011;33815;48.386;11.738;2022-10-31T09:15:31;8.93;;;6.95;;
48040;SDS011;33815;48.386;11.738;2022-10-31T09:17:57;12.85;;;6.95;;
48040;SDS011;33815;48.386;11.738;2022-10-31T09:20:22;13.27;;;7.05;;
48040;SDS011;33815;48.386;11.738;2022-10-31T09:22:47;13.75;;;7.18;;
48040;SDS011;33815;48.386;11.738;2022-10-31T09:25:13;9.73;;;6.13;;
48040;SDS011;33815;48.386;11.738;2022-10-31T09:27:38;13.23;;;7.25;;
48040;SDS011;33815;48.386;11.738;2022-10-31T09:30:04;12.13;;;6.97;;
48040;SDS011;33815;48.386;11.738;2022-10-31T09:32:30;10.02;;;6.35;;
48040;SDS011;33815;48.386;11.738;2022-10-31T09:34:55;14.80;;;6.93;;
48040;SDS011;33815;48.386;11.738;2022-10-31T09:37:20;11.70;;;6.97;;
48040;SDS011;33815;48.386;11.738;2022-10-31T09:39:46;12.27;;;7.43;;
48040;SDS011;33815;48.386;11.738;2022-10-31T09:48:08;9.98;;;6.18;;
48040;SDS011;33815;48.386;11.738;2022-10-31T09:50:51;8.35;;;6.15;;
48040;SDS011;33815;48.386;11.738;2022-10-31T09:53:24;9.35;;;6.78;;
48040;SDS011;33815;48.386;11.738;2022-10-31T09:56:13;15.40;;;6.30;;
48040;SDS011;33815;48.386;11.738;2022-10-31T09:58:42;12.38;;;7.30;;
48040;SDS011;33815;48.386;11.738;2022-10-31T10:01:16;16.58;;;6.75;;
48040;SDS011;33815;48.386;11.738;2022-10-31T10:03:49;8.65;;;4.97;;
48040;SDS011;33815;48.386;11.738;2022-10-31T10:06:26;9.10;;;5.05;;
48040;SDS011;33815;48.386;11.738;2022-10-31T10:08:54;8.43;;;4.63;;
48040;SDS011;33815;48.386;11.738;2022-10-31T10:22:24;14.38;;;4.50;;
48040;SDS011;33815;48.386;11.738;2022-10-31T10:25:00;8.38;;;4.38;;
48040;SDS011;33815;48.386;11.738;2022-10-31T10:27:46;9.63;;;4.38;;
48040;SDS011;33815;48.386;11.738;2022-10-31T10:32:44;8.90;;;4.75;;
48040;SDS011;33815;48.386;11.738;2022-10-31T10:35:17;5.57;;;3.80;;
48040;SDS011;33815;48.386;11.738;2022-10-31T10:37:52;8.95;;;4.88;;
48040;SDS011;33815;48.386;11.738;2022-10-31T10:40:25;7.15;;;4.80;;
48040;SDS011;33815;48.386;11.738;2022-10-31T10:43:18;5.22;;;3.90;;
48040;SDS011;33815;48.386;11.738;2022-10-31T10:45:57;11.02;;;4.60;;
48040;SDS011;33815;48.386;11.738;2022-10-31T10:48:56;6.28;;;3.95;;
48040;SDS011;33815;48.386;11.738;2022-10-31T10:51:51;10.95;;;4.30;;
48040;SDS011;33815;48.386;11.738;2022-10-31T10:59:36;10.10;;;4.80;;
48040;SDS011;33815;48.386;11.738;2022-10-31T11:02:03;9.48;;;4.35;;
48040;SDS011;33815;48.386;11.738;2022-10-31T11:04:34;12.05;;;4.50;;
48040;SDS011;33815;48.386;11.738;2022-10-31T11:07:08;12.82;;;5.35;;
48040;SDS011;33815;48.386;11.738;2022-10-31T11:09:34;6.97;;;4.57;;
48040;SDS011;33815;48.386;11.738;2022-10-31T11:15:01;14.77;;;5.75;;
48040;SDS011;33815;48.386;11.738;2022-10-31T11:17:38;11.32;;;5.35;;
48040;SDS011;33815;48.386;11.738;2022-10-31T11:20:16;8.55;;;5.15;;
48040;SDS011;33815;48.386;11.738;2022-10-31T11:22:47;7.60;;;5.70;;
48040;SDS011;33815;48.386;11.738;2022-10-31T11:27:46;10.23;;;5.47;;
48040;SDS011;33815;48.386;11.738;2022-10-31T11:30:12;11.32;;;5.72;;
48040;SDS011;33815;48.386;11.738;2022-10-31T11:32:49;19.70;;;6.72;;
48040;SDS011;33815;48.386;11.738;2022-10-31T11:35:17;9.82;;;5.38;;
48040;SDS011;33815;48.386;11.738;2022-10-31T11:37:45;11.02;;;4.78;;
48040;SDS011;33815;48.386;11.738;2022-10-31T11:40:20;9.20;;;5.43;;
48040;SDS011;33815;48.386;11.738;2022-10-31T11:42:47;9.75;;;5.00;;
48040;SDS011;33815;48.386;11.738;2022-10-31T11:47:49;13.00;;;5.68;;
48040;SDS011;33815;48.386;11.738;2022-10-31T11:53:17;12.02;;;5.43;;
48040;SDS011;33815;48.386;11.738;2022-10-31T11:55:45;11.07;;;6.72;;
48040;SDS011;33815;48.386;11.738;2022-10-31T11:58:22;11.25;;;6.30;;
48040;SDS011;33815;48.386;11.738;2022-10-31T12:00:53;11.20;;;5.93;;
48040;SDS011;33815;48.386;11.738;2022-10-31T12:06:02;16.45;;;6.18;;
48040;SDS011;33815;48.386;11.738;2022-10-31T12:08:36;13.02;;;6.18;;
48040;SDS011;33815;48.386;11.738;2022-10-31T12:14:05;12.45;;;6.30;;
48040;SDS011;33815;48.386;11.738;2022-10-31T12:16:46;9.63;;;6.05;;
48040;SDS011;33815;48.386;11.738;2022-10-31T12:22:17;9.93;;;5.28;;
48040;SDS011;33815;48.386;11.738;2022-10-31T12:25:21;13.32;;;5.43;;
48040;SDS011;33815;48.386;11.738;2022-10-31T12:33:44;13.23;;;6.22;;
48040;SDS011;33815;48.386;11.738;2022-10-31T12:36:21;9.52;;;5.43;;
48040;SDS011;33815;48.386;11.738;2022-10-31T12:39:05;8.57;;;5.63;;
48040;SDS011;33815;48.386;11.738;2022-10-31T13:00:54;10.20;;;4.70;;
48040;SDS011;33815;48.386;11.738;2022-10-31T13:03:36;12.73;;;5.35;;
48040;SDS011;33815;48.386;11.738;2022-10-31T13:06:23;5.90;;;4.97;;
48040;SDS011;33815;48.386;11.738;2022-10-31T13:08:55;9.25;;;5.13;;
48040;SDS011;33815;48.386;11.738;2022-10-31T13:11:25;12.30;;;5.57;;
48040;SDS011;33815;48.386;11.738;2022-10-31T13:14:06;9.45;;;6.10;;
48040;SDS011;33815;48.386;11.738;2022-10-31T13:16:37;10.32;;;5.55;;
48040;SDS011;33815;48.386;11.738;2022-10-31T13:19:09;8.25;;;4.50;;
48040;SDS011;33815;48.386;11.738;2022-10-31T13:21:42;7.93;;;4.93;;
48040;SDS011;33815;48.386;11.738;2022-10-31T13:25:09;11.48;;;5.30;;
48040;SDS011;33815;48.386;11.738;2022-10-31T13:30:04;10.85;;;5.30;;
48040;SDS011;33815;48.386;11.738;2022-10-31T13:32:40;9.38;;;5.38;;
48040;SDS011;33815;48.386;11.738;2022-10-31T13:35:16;15.35;;;5.40;;
48040;SDS011;33815;48.386;11.738;2022-10-31T13:38:33;8.20;;;4.85;;
48040;SDS011;33815;48.386;11.738;2022-10-31T13:40:50;10.05;;;4.95;;
48040;SDS011;33815;48.386;11.738;2022-10-31T13:43:27;11.80;;;5.20;;
48040;SDS011;33815;48.386;11.738;2022-10-31T13:45:57;11.80;;;5.88;;
48040;SDS011;33815;48.386;11.738;2022-10-31T13:48:38;9.15;;;4.97;;
48040;SDS011;33815;48.386;11.738;2022-10-31T13:51:07;12.25;;;5.60;;
48040;SDS011;33815;48.386;11.738;2022-10-31T13:53:44;13.25;;;6.00;;
48040;SDS011;33815;48.386;11.738;2022-10-31T13:56:22;10.45;;;5.63;;
48040;SDS011;33815;48.386;11.738;2022-10-31T13:58:57;9.35;;;6.90;;
48040;SDS011;33815;48.386;11.738;2022-10-31T14:01:25;7.35;;;5.13;;
48040;SDS011;33815;48.386;11.738;2022-10-31T14:03:58;9.13;;;6.45;;
48040;SDS011;33815;48.386;11.738;2022-10-31T14:11:49;8.98;;;5.93;;
48040;SDS011;33815;48.386;11.738;2022-10-31T14:14:15;9.85;;;5.93;;
48040;SDS011;33815;48.386;11.738;2022-10-31T14:16:44;14.45;;;6.35;;
48040;SDS011;33815;48.386;11.738;2022-10-31T14:19:15;14.40;;;6.00;;
48040;SDS011;33815;48.386;11.738;2022-10-31T14:21:46;10.07;;;5.88;;
48040;SDS011;33815;48.386;11.738;2022-10-31T14:24:13;12.27;;;6.18;;
48040;SDS011;33815;48.386;11.738;2022-10-31T14:29:26;10.73;;;7.45;;
48040;SDS011;33815;48.386;11.738;2022-10-31T14:31:57;11.05;;;6.15;;
48040;SDS011;33815;48.386;11.738;2022-10-31T14:34:27;12.02;;;6.57;;
48040;SDS011;33815;48.386;11.738;2022-10-31T14:45:39;14.13;;;7.63;;
48040;SDS011;33815;48.386;11.738;2022-10-31T14:51:36;12.85;;;6.07;;
48040;SDS011;33815;48.386;11.738;2022-10-31T14:54:04;13.23;;;5.90;;
48040;SDS011;33815;48.386;11.738;2022-10-31T14:56:33;12.25;;;6.25;;
48040;SDS011;33815;48.386;11.738;2022-10-31T14:59:08;9.73;;;6.50;;
48040;SDS011;33815;48.386;11.738;2022-10-31T15:01:39;9.75;;;6.35;;
48040;SDS011;33815;48.386;11.738;2022-10-31T15:04:07;10.65;;;7.22;;
48040;SDS011;33815;48.386;11.738;2022-10-31T15:06:44;16.02;;;7.13;;
48040;SDS011;33815;48.386;11.738;2022-10-31T15:09:26;8.05;;;4.75;;
48040;SDS011;33815;48.386;11.738;2022-10-31T15:11:53;11.48;;;6.82;;
48040;SDS011;33815;48.386;11.738;2022-10-31T15:14:23;11.65;;;6.28;;
48040;SDS011;33815;48.386;11.738;2022-10-31T15:16:50;15.60;;;6.82;;
48040;SDS011;33815;48.386;11.738;2022-10-31T15:19:18;9.70;;;6.75;;
48040;SDS011;33815;48.386;11.738;2022-10-31T15:21:46;11.90;;;6.70;;
48040;SDS011;33815;48.386;11.738;2022-10-31T15:24:13;9.13;;;5.82;;
48040;SDS011;33815;48.386;11.738;2022-10-31T15:26:50;11.98;;;7.07;;
48040;SDS011;33815;48.386;11.738;2022-10-31T15:29:18;12.63;;;6.90;;
48040;SDS011;33815;48.386;11.738;2022-10-31T15:31:55;9.52;;;6.03;;
48040;SDS011;33815;48.386;11.738;2022-10-31T15:34:30;10.20;;;6.90;;
48040;SDS011;33815;48.386;11.738;2022-10-31T15:37:10;10.55;;;6.93;;
48040;SDS011;33815;48.386;11.738;2022-10-31T15:39:37;12.80;;;7.25;;
48040;SDS011;33815;48.386;11.738;2022-10-31T15:42:02;10.20;;;6.20;;
48040;SDS011;33815;48.386;11.738;2022-10-31T15:44:32;10.07;;;6.90;;
48040;SDS011;33815;48.386;11.738;2022-10-31T15:47:04;12.50;;;6.70;;
48040;SDS011;33815;48.386;11.738;2022-10-31T15:49:41;13.43;;;7.60;;
48040;SDS011;33815;48.386;11.738;2022-10-31T15:52:17;12.27;;;8.43;;
48040;SDS011;33815;48.386;11.738;2022-10-31T15:54:54;13.27;;;7.15;;
48040;SDS011;33815;48.386;11.738;2022-10-31T15:57:23;14.50;;;7.97;;
48040;SDS011;33815;48.386;11.738;2022-10-31T15:59:51;14.48;;;6.93;;
48040;SDS011;33815;48.386;11.738;2022-10-31T16:02:18;9.23;;;6.50;;
48040;SDS011;33815;48.386;11.738;2022-10-31T16:04:48;8.10;;;6.72;;
48040;SDS011;33815;48.386;11.738;2022-10-31T16:07:25;10.45;;;6.22;;
48040;SDS011;33815;48.386;11.738;2022-10-31T16:09:55;9.13;;;6.53;;
48040;SDS011;33815;48.386;11.738;2022-10-31T16:12:23;11.25;;;7.07;;
48040;SDS011;33815;48.386;11.738;2022-10-31T16:14:51;9.07;;;6.50;;
48040;SDS011;33815;48.386;11.738;2022-10-31T16:17:19;9.77;;;6.00;;
48040;SDS011;33815;48.386;11.738;2022-10-31T16:19:50;9.80;;;6.38;;
48040;SDS011;33815;48.386;11.738;2022-10-31T16:22:20;7.85;;;6.10;;
48040;SDS011;33815;48.386;11.738;2022-10-31T16:24:49;9.10;;;6.55;;
48040;SDS011;33815;48.386;11.738;2022-10-31T16:27:23;11.95;;;7.07;;
48040;SDS011;33815;48.386;11.738;2022-10-31T16:29:54;10.80;;;6.85;;
48040;SDS011;33815;48.386;11.738;2022-10-31T16:35:16;12.15;;;7.43;;
48040;SDS011;33815;48.386;11.738;2022-10-31T16:37:43;11.85;;;7.45;;
48040;SDS011;33815;48.386;11.738;2022-10-31T16:40:10;9.25;;;6.03;;